createdAt,value
2023-05-21T00:01:43.620Z,5.08
2023-05-21T00:04:55.264Z,4.42
2023-05-21T00:08:07.252Z,4.10
2023-05-21T00:11:17.047Z,4.00
2023-05-21T00:14:30.607Z,5.05
2023-05-21T00:17:40.572Z,4.92
2023-05-21T00:20:51.034Z,4.78
2023-05-21T00:24:04.097Z,5.35
2023-05-21T00:27:17.535Z,4.35
2023-05-21T00:30:27.185Z,4.58
2023-05-21T00:33:41.524Z,5.08
2023-05-21T00:36:54.008Z,5.25
2023-05-21T00:40:08.048Z,4.65
2023-05-21T00:43:19.811Z,4.27
2023-05-21T00:46:32.280Z,4.72
2023-05-21T00:49:43.750Z,4.87
2023-05-21T00:52:53.860Z,4.90
2023-05-21T00:56:04.364Z,4.30
2023-05-21T00:59:13.783Z,5.00
2023-05-21T01:02:26.791Z,4.67
2023-05-21T01:05:36.959Z,5.33
2023-05-21T01:08:47.359Z,4.42
2023-05-21T01:11:58.312Z,5.15
2023-05-21T01:15:13.287Z,3.58
2023-05-21T01:18:22.610Z,3.65
2023-05-21T01:21:32.569Z,4.28
2023-05-21T01:24:47.157Z,3.62
2023-05-21T01:27:58.465Z,3.90
2023-05-21T01:31:10.118Z,3.20
2023-05-21T01:34:20.513Z,3.33
2023-05-21T01:37:32.449Z,4.00
2023-05-21T01:40:43.832Z,4.22
2023-05-21T01:43:57.389Z,5.03
2023-05-21T01:47:09.517Z,3.98
2023-05-21T01:50:21.143Z,3.03
2023-05-21T01:53:34.114Z,3.08
2023-05-21T01:56:44.298Z,1.98
2023-05-21T01:59:54.897Z,2.85
2023-05-21T02:03:09.546Z,2.85
2023-05-21T02:06:19.656Z,2.85
2023-05-21T02:09:30.102Z,2.45
2023-05-21T02:12:41.942Z,2.65
2023-05-21T02:15:55.492Z,3.52
2023-05-21T02:19:08.094Z,2.45
2023-05-21T02:22:17.472Z,2.90
2023-05-21T02:25:30.558Z,2.70
2023-05-21T02:31:48.974Z,2.70
2023-05-21T02:35:01.493Z,2.47
2023-05-21T02:38:11.224Z,1.82
2023-05-21T02:41:19.482Z,2.30
2023-05-21T02:44:29.008Z,1.87
2023-05-21T02:47:40.671Z,1.95
2023-05-21T02:50:50.975Z,2.25
2023-05-21T02:54:00.202Z,2.02
2023-05-21T03:00:34.480Z,1.57
2023-05-21T03:03:44.139Z,1.65
2023-05-21T03:06:57.717Z,1.62
2023-05-21T03:10:08.468Z,2.22
2023-05-21T03:13:19.231Z,2.15
2023-05-21T03:16:27.504Z,1.37
2023-05-21T03:19:40.088Z,1.57
2023-05-21T03:22:52.445Z,1.85
2023-05-21T03:26:04.137Z,1.50
2023-05-21T03:29:14.052Z,1.30
2023-05-21T03:32:25.021Z,1.87
2023-05-21T03:35:37.818Z,1.85
2023-05-21T03:42:05.815Z,1.67
2023-05-21T03:45:19.841Z,1.65
2023-05-21T03:48:29.355Z,1.80
2023-05-21T03:51:40.050Z,1.60
2023-05-21T03:54:50.825Z,1.72
2023-05-21T03:58:03.396Z,1.92
2023-05-21T04:01:14.405Z,1.55
2023-05-21T04:04:28.107Z,1.62
2023-05-21T04:07:39.027Z,1.62
2023-05-21T04:10:49.654Z,1.30
2023-05-21T04:14:01.306Z,1.30
2023-05-21T04:17:14.893Z,1.30
2023-05-21T04:20:24.610Z,1.35
2023-05-21T04:23:35.164Z,1.20
2023-05-21T04:26:46.800Z,1.52
2023-05-21T04:29:58.619Z,1.62
2023-05-21T04:33:07.389Z,1.47
2023-05-21T04:36:19.218Z,1.55
2023-05-21T04:39:28.405Z,1.65
2023-05-21T04:42:39.704Z,1.35
2023-05-21T04:45:51.571Z,1.22
2023-05-21T04:49:03.459Z,1.80
2023-05-21T04:52:13.591Z,1.42
2023-05-21T04:55:25.119Z,1.32
2023-05-21T04:58:36.298Z,1.80
2023-05-21T05:01:48.906Z,1.20
2023-05-21T05:05:00.497Z,1.55
2023-05-21T05:08:11.169Z,1.72
2023-05-21T05:11:21.445Z,1.57
2023-05-21T05:14:31.741Z,1.87
2023-05-21T05:17:40.404Z,1.35
2023-05-21T05:20:49.516Z,1.32
2023-05-21T05:23:59.541Z,1.98
2023-05-21T05:27:10.084Z,1.27
2023-05-21T05:30:20.564Z,1.70
2023-05-21T05:33:30.253Z,1.10
2023-05-21T05:36:41.343Z,1.95
2023-05-21T05:39:52.305Z,1.70
2023-05-21T05:43:03.970Z,1.70
2023-05-21T05:46:17.012Z,1.20
2023-05-21T05:49:27.338Z,1.22
2023-05-21T05:52:36.623Z,1.70
2023-05-21T05:55:48.442Z,1.70
2023-05-21T05:59:03.222Z,2.40
2023-05-21T06:02:14.576Z,1.60
2023-05-21T06:05:26.096Z,2.00
2023-05-21T06:08:40.814Z,1.85
2023-05-21T06:11:50.956Z,1.40
2023-05-21T06:15:00.280Z,1.27
2023-05-21T06:18:13.057Z,2.22
2023-05-21T06:21:25.510Z,1.52
2023-05-21T06:24:36.088Z,1.75
2023-05-21T06:27:46.848Z,2.42
2023-05-21T06:30:58.286Z,1.52
2023-05-21T06:34:06.041Z,1.60
2023-05-21T06:37:19.519Z,2.25
2023-05-21T06:40:29.540Z,1.92
2023-05-21T06:43:39.457Z,1.65
2023-05-21T06:46:48.981Z,2.05
2023-05-21T06:49:58.978Z,1.75
2023-05-21T06:53:07.352Z,2.60
2023-05-21T06:56:18.070Z,2.15
2023-05-21T06:59:29.069Z,1.95
2023-05-21T07:02:37.372Z,2.40
2023-05-21T07:05:45.666Z,2.50
2023-05-21T07:08:53.966Z,1.95
2023-05-21T07:12:05.958Z,1.77
2023-05-21T07:15:15.886Z,1.82
2023-05-21T07:18:27.719Z,2.52
2023-05-21T07:21:37.720Z,2.52
2023-05-21T07:24:48.874Z,2.85
2023-05-21T07:27:59.206Z,2.33
2023-05-21T07:31:13.934Z,2.55
2023-05-21T07:34:27.145Z,1.98
2023-05-21T07:40:48.600Z,2.35
2023-05-21T07:43:59.615Z,2.58
2023-05-21T07:47:13.712Z,2.30
2023-05-21T07:50:24.408Z,2.50
2023-05-21T07:53:36.418Z,2.53
2023-05-21T07:56:45.912Z,2.80
2023-05-21T07:59:53.805Z,3.00
2023-05-21T08:03:07.534Z,3.35
2023-05-21T08:06:17.828Z,2.72
2023-05-21T08:09:29.805Z,2.30
2023-05-21T08:12:41.810Z,3.52
2023-05-21T08:15:54.788Z,2.92
2023-05-21T08:19:06.486Z,3.00
2023-05-21T08:22:17.407Z,2.35
2023-05-21T08:25:29.064Z,2.47
2023-05-21T08:28:41.090Z,3.52
2023-05-21T08:31:52.798Z,2.65
2023-05-21T08:35:05.942Z,3.02
2023-05-21T08:38:18.223Z,3.22
2023-05-21T08:41:32.834Z,2.92
2023-05-21T08:44:42.664Z,2.35
2023-05-21T08:47:56.348Z,2.75
2023-05-21T08:51:09.531Z,2.58
2023-05-21T08:57:31.770Z,2.33
2023-05-21T09:00:44.557Z,2.35
2023-05-21T09:04:04.904Z,2.72
2023-05-21T09:07:12.320Z,3.10
2023-05-21T09:10:25.235Z,2.58
2023-05-21T09:13:38.863Z,3.15
2023-05-21T09:16:50.524Z,3.40
2023-05-21T09:20:25.746Z,2.83
2023-05-21T09:23:36.084Z,3.50
2023-05-21T09:26:48.542Z,2.45
2023-05-21T09:30:02.489Z,2.77
2023-05-21T09:33:16.365Z,3.05
2023-05-21T09:36:27.789Z,3.15
2023-05-21T09:39:40.562Z,2.35
2023-05-21T09:42:54.105Z,3.75
2023-05-21T09:46:07.197Z,2.58
2023-05-21T09:49:30.298Z,3.42
2023-05-21T09:52:42.297Z,3.50
2023-05-21T09:55:55.092Z,3.45
2023-05-21T09:59:06.874Z,2.70
2023-05-21T10:02:30.586Z,3.00
2023-05-21T10:05:41.154Z,3.08
2023-05-21T10:08:54.057Z,2.58
2023-05-21T10:12:03.584Z,2.30
2023-05-21T10:15:18.881Z,3.05
2023-05-21T10:18:27.079Z,2.98
2023-05-21T10:21:39.626Z,3.08
2023-05-21T10:24:50.524Z,2.30
2023-05-21T10:28:04.682Z,2.90
2023-05-21T10:31:18.559Z,3.42
2023-05-21T10:34:29.707Z,3.10
2023-05-21T10:37:40.785Z,3.20
2023-05-21T10:40:51.300Z,3.75
2023-05-21T10:44:10.922Z,2.27
2023-05-21T10:47:44.130Z,3.47
2023-05-21T10:51:20.623Z,2.80
2023-05-21T10:55:05.858Z,2.83
2023-05-21T10:58:38.268Z,3.27
2023-05-21T11:01:51.817Z,3.12
2023-05-21T11:05:06.020Z,2.90
2023-05-21T11:11:52.202Z,3.47
2023-05-21T11:15:10.517Z,2.85
2023-05-21T11:18:23.197Z,2.92
2023-05-21T11:21:34.910Z,2.75
2023-05-21T11:24:49.360Z,2.52
2023-05-21T11:27:58.305Z,2.58
2023-05-21T11:31:29.472Z,3.12
2023-05-21T11:34:43.151Z,4.17
2023-05-21T11:37:55.584Z,2.50
2023-05-21T11:41:10.421Z,3.22
2023-05-21T11:44:20.774Z,2.92
2023-05-21T11:47:32.964Z,2.77
2023-05-21T11:50:45.727Z,2.85
2023-05-21T11:53:58.365Z,3.15
2023-05-21T11:57:10.815Z,2.62
2023-05-21T12:00:24.044Z,3.40
2023-05-21T12:06:43.269Z,3.00
2023-05-21T12:09:55.795Z,2.80
2023-05-21T12:13:08.486Z,3.67
2023-05-21T12:16:19.473Z,2.85
2023-05-21T12:19:29.973Z,4.05
2023-05-21T12:22:46.004Z,2.70
2023-05-21T12:25:58.684Z,2.35
2023-05-21T12:29:09.224Z,2.55
2023-05-21T12:32:19.634Z,3.02
2023-05-21T12:35:29.366Z,3.40
2023-05-21T12:38:37.369Z,3.08
2023-05-21T12:41:46.595Z,3.00
2023-05-21T12:44:59.393Z,3.30
2023-05-21T12:48:15.026Z,2.12
2023-05-21T12:51:26.211Z,3.10
2023-05-21T12:54:39.835Z,2.25
2023-05-21T12:57:52.495Z,2.83
2023-05-21T13:01:05.432Z,2.22
2023-05-21T13:04:19.180Z,5.00
2023-05-21T13:07:29.470Z,3.00
2023-05-21T13:10:41.240Z,2.35
2023-05-21T13:13:53.141Z,2.45
2023-05-21T13:17:04.683Z,2.45
2023-05-21T13:20:17.816Z,2.47
2023-05-21T13:23:29.524Z,1.95
2023-05-21T13:26:42.154Z,2.52
2023-05-21T13:29:58.544Z,2.25
2023-05-21T13:33:10.080Z,2.62
2023-05-21T13:36:21.305Z,2.25
2023-05-21T13:39:34.342Z,2.02
2023-05-21T13:42:44.507Z,1.92
2023-05-21T13:45:58.248Z,1.95
2023-05-21T13:49:12.109Z,2.62
2023-05-21T13:52:25.513Z,2.02
2023-05-21T13:55:36.333Z,2.52
2023-05-21T13:58:47.533Z,2.62
2023-05-21T14:01:59.765Z,2.55
2023-05-21T14:05:15.046Z,2.33
2023-05-21T14:08:26.561Z,2.25
2023-05-21T14:11:37.470Z,2.52
2023-05-21T14:14:50.663Z,2.50
2023-05-21T14:21:11.172Z,2.70
2023-05-21T14:24:25.901Z,1.90
2023-05-21T14:27:38.548Z,2.42
2023-05-21T14:30:51.891Z,2.30
2023-05-21T14:34:07.757Z,1.98
2023-05-21T14:37:22.655Z,2.10
2023-05-21T14:40:37.310Z,1.90
2023-05-21T14:43:53.920Z,2.67
2023-05-21T14:47:04.264Z,2.37
2023-05-21T14:50:16.986Z,1.77
2023-05-21T14:53:27.328Z,2.45
2023-05-21T14:56:39.551Z,1.70
2023-05-21T14:59:52.370Z,2.40
2023-05-21T15:03:03.594Z,2.30
2023-05-21T15:06:16.522Z,1.87
2023-05-21T15:09:25.863Z,1.70
2023-05-21T15:12:35.367Z,2.40
2023-05-21T15:15:48.722Z,2.15
2023-05-21T15:18:58.991Z,2.00
2023-05-21T15:22:12.427Z,1.92
2023-05-21T15:25:23.041Z,2.17
2023-05-21T15:28:33.736Z,1.72
2023-05-21T15:31:45.181Z,1.77
2023-05-21T15:34:56.476Z,1.55
2023-05-21T15:38:10.968Z,1.60
2023-05-21T15:41:23.746Z,1.80
2023-05-21T15:44:35.277Z,2.52
2023-05-21T15:47:46.995Z,1.95
2023-05-21T15:50:56.974Z,2.02
2023-05-21T15:54:09.581Z,1.60
2023-05-21T15:57:23.305Z,1.87
2023-05-21T16:00:35.650Z,1.98
2023-05-21T16:03:45.965Z,1.72
2023-05-21T16:06:55.427Z,2.35
2023-05-21T16:10:08.208Z,2.47
2023-05-21T16:13:19.298Z,1.20
2023-05-21T16:16:32.146Z,1.98
2023-05-21T16:19:44.110Z,1.30
2023-05-21T16:22:53.511Z,2.02
2023-05-21T16:26:05.953Z,1.30
2023-05-21T16:29:17.002Z,2.17
2023-05-21T16:32:31.671Z,1.35
2023-05-21T16:35:43.401Z,1.92
2023-05-21T16:38:52.503Z,1.92
2023-05-21T16:42:03.922Z,1.80
2023-05-21T16:45:18.180Z,1.80
2023-05-21T16:48:30.534Z,1.50
2023-05-21T16:51:42.391Z,1.72
2023-05-21T16:54:51.875Z,1.85
2023-05-21T16:58:03.659Z,2.02
2023-05-21T17:01:14.818Z,2.15
2023-05-21T17:04:26.001Z,1.52
2023-05-21T17:07:40.902Z,1.50
2023-05-21T17:10:54.639Z,1.72
2023-05-21T17:14:08.048Z,1.80
2023-05-21T17:17:17.438Z,1.65
2023-05-21T17:20:28.251Z,1.50
2023-05-21T17:23:40.139Z,2.22
2023-05-21T17:26:52.625Z,2.00
2023-05-21T17:30:01.131Z,2.33
2023-05-21T17:33:12.779Z,1.67
2023-05-21T17:36:21.464Z,1.98
2023-05-21T17:39:31.538Z,2.37
2023-05-21T17:42:44.202Z,2.52
2023-05-21T17:45:57.126Z,2.05
2023-05-21T17:49:09.045Z,1.72
2023-05-21T17:52:22.080Z,1.90
2023-05-21T17:55:34.825Z,2.15
2023-05-21T17:58:44.837Z,2.00
2023-05-21T18:01:56.040Z,1.47
2023-05-21T18:05:05.566Z,1.42
2023-05-21T18:08:17.482Z,2.20
2023-05-21T18:11:27.103Z,2.02
2023-05-21T18:14:37.149Z,1.72
2023-05-21T18:17:48.761Z,1.35
2023-05-21T18:21:03.513Z,2.10
2023-05-21T18:24:15.395Z,1.77
2023-05-21T18:27:27.075Z,1.30
2023-05-21T18:30:38.893Z,1.67
2023-05-21T18:33:50.019Z,1.60
2023-05-21T18:37:01.007Z,1.60
2023-05-21T18:40:15.339Z,1.67
2023-05-21T18:43:25.175Z,1.57
2023-05-21T18:46:37.640Z,2.50
2023-05-21T18:49:48.324Z,1.77
2023-05-21T18:52:58.212Z,1.50
2023-05-21T18:56:10.850Z,1.80
2023-05-21T18:59:21.149Z,2.20
2023-05-21T19:02:31.423Z,1.67
2023-05-21T19:05:43.326Z,1.95
2023-05-21T19:08:55.458Z,1.70
2023-05-21T19:12:06.673Z,1.57
2023-05-21T19:15:17.470Z,1.75
2023-05-21T19:18:28.537Z,2.08
2023-05-21T19:21:40.293Z,1.90
2023-05-21T19:24:53.921Z,2.25
2023-05-21T19:28:02.188Z,2.08
2023-05-21T19:31:14.481Z,1.77
2023-05-21T19:34:28.410Z,1.70
2023-05-21T19:37:36.552Z,1.42
2023-05-21T19:40:47.344Z,1.50
2023-05-21T19:43:56.385Z,1.75
2023-05-21T19:47:07.005Z,1.87
2023-05-21T19:50:16.828Z,1.47
2023-05-21T19:53:26.792Z,1.95
2023-05-21T19:56:37.282Z,1.45
2023-05-21T19:59:47.147Z,1.40
2023-05-21T20:02:58.247Z,1.57
2023-05-21T20:06:09.964Z,1.90
2023-05-21T20:09:20.514Z,2.42
2023-05-21T20:12:30.772Z,2.12
2023-05-21T20:15:41.976Z,2.40
2023-05-21T20:18:51.980Z,1.57
2023-05-21T20:22:03.614Z,1.47
2023-05-21T20:25:17.071Z,2.30
2023-05-21T20:28:29.749Z,1.52
2023-05-21T20:31:41.177Z,1.98
2023-05-21T20:35:02.659Z,1.47
2023-05-21T20:38:06.203Z,1.90
2023-05-21T20:41:16.810Z,2.05
2023-05-21T20:44:29.880Z,2.25
2023-05-21T20:50:55.073Z,2.10
2023-05-21T20:54:06.630Z,1.65
2023-05-21T20:57:17.126Z,2.22
2023-05-21T21:00:29.007Z,2.67
2023-05-21T21:03:43.417Z,2.17
2023-05-21T21:06:56.434Z,1.57
2023-05-21T21:10:09.589Z,1.40
2023-05-21T21:16:29.248Z,1.92
2023-05-21T21:19:43.739Z,1.75
2023-05-21T21:22:58.086Z,2.92
2023-05-21T21:26:13.324Z,1.82
2023-05-21T21:29:22.425Z,1.80
2023-05-21T21:32:31.720Z,1.95
2023-05-21T21:35:42.355Z,2.60
2023-05-21T21:38:51.699Z,2.12
2023-05-21T21:42:03.842Z,2.10
2023-05-21T21:45:16.770Z,2.03
2023-05-21T21:48:26.768Z,2.10
2023-05-21T21:51:34.894Z,1.90
2023-05-21T21:54:45.963Z,1.80
2023-05-21T21:58:01.000Z,1.80
2023-05-21T22:01:15.215Z,2.02
2023-05-21T22:04:22.948Z,1.70
2023-05-21T22:07:32.850Z,1.32
2023-05-21T22:10:43.699Z,1.92
2023-05-21T22:13:55.437Z,1.85
2023-05-21T22:17:10.543Z,2.08
2023-05-21T22:20:23.695Z,1.40
2023-05-21T22:26:42.615Z,2.02
2023-05-21T22:29:53.444Z,1.55
2023-05-21T22:33:04.725Z,1.52
2023-05-21T22:36:18.943Z,2.65
2023-05-21T22:39:29.005Z,1.85
2023-05-21T22:42:40.720Z,2.00
2023-05-21T22:45:53.079Z,2.75
2023-05-21T22:49:03.125Z,2.35
2023-05-21T22:52:17.075Z,1.87
2023-05-21T22:55:28.841Z,2.45
2023-05-21T22:58:40.684Z,2.77
2023-05-21T23:01:53.541Z,2.17
2023-05-21T23:05:02.795Z,2.67
2023-05-21T23:08:14.396Z,2.10
2023-05-21T23:11:25.243Z,1.75
2023-05-21T23:14:37.654Z,2.27
2023-05-21T23:17:47.694Z,2.15
2023-05-21T23:21:00.480Z,3.47
2023-05-21T23:24:11.579Z,1.87
2023-05-21T23:27:19.836Z,2.70
2023-05-21T23:30:30.935Z,2.60
2023-05-21T23:33:41.646Z,2.02
2023-05-21T23:36:53.204Z,2.47
2023-05-21T23:40:03.176Z,2.72
2023-05-21T23:43:15.791Z,2.10
2023-05-21T23:46:26.455Z,2.20
2023-05-21T23:49:36.380Z,2.60
2023-05-21T23:52:50.918Z,2.58
2023-05-21T23:56:03.429Z,2.72
2023-05-21T23:59:17.606Z,2.83
